createdAt,value
2022-12-18T00:06:14.847Z,-2.32
2022-12-18T00:11:11.005Z,-2.15
2022-12-18T00:16:05.828Z,-2.18
2022-12-18T00:21:02.459Z,-2.06
2022-12-18T00:26:00.971Z,-2.12
2022-12-18T00:31:03.190Z,-2.12
2022-12-18T00:35:56.662Z,-2.09
2022-12-18T00:47:22.914Z,-2.15
2022-12-18T00:52:16.226Z,-2.06
2022-12-18T00:57:33.043Z,-2.01
2022-12-18T01:02:28.144Z,-2.12
2022-12-18T01:07:22.267Z,-1.94
2022-12-18T01:12:15.621Z,-2.14
2022-12-18T01:17:43.254Z,-2.05
2022-12-18T01:22:36.762Z,-1.94
2022-12-18T01:27:30.357Z,-2.15
2022-12-18T01:32:38.986Z,-2.15
2022-12-18T01:37:33.866Z,-2.22
2022-12-18T01:42:27.971Z,-2.29
2022-12-18T01:47:27.249Z,-2.13
2022-12-18T01:52:23.520Z,-1.92
2022-12-18T01:57:18.697Z,-1.82
2022-12-18T02:02:14.327Z,-1.85
2022-12-18T02:07:19.018Z,-1.96
2022-12-18T02:12:22.071Z,-1.83
2022-12-18T02:17:23.196Z,-1.74
2022-12-18T02:22:35.821Z,-1.70
2022-12-18T02:27:34.384Z,-1.73
2022-12-18T02:32:33.707Z,-1.68
2022-12-18T02:37:30.348Z,-1.83
2022-12-18T02:42:25.061Z,-1.77
2022-12-18T02:47:24.577Z,-1.92
2022-12-18T02:52:35.885Z,-1.92
2022-12-18T02:57:38.952Z,-1.90
2022-12-18T03:02:45.726Z,-1.85
2022-12-18T03:07:47.446Z,-1.80
2022-12-18T03:12:46.986Z,-1.98
2022-12-18T03:17:47.724Z,-1.91
2022-12-18T03:22:44.894Z,-1.98
2022-12-18T03:27:46.149Z,-1.96
2022-12-18T03:32:48.756Z,-1.96
2022-12-18T03:37:42.267Z,-1.85
2022-12-18T03:42:50.051Z,-1.61
2022-12-18T03:48:01.328Z,-1.73
2022-12-18T03:53:02.079Z,-1.63
2022-12-18T03:57:56.725Z,-1.87
2022-12-18T04:02:56.393Z,-1.97
2022-12-18T04:07:53.539Z,-1.77
2022-12-18T04:12:46.871Z,-1.96
2022-12-18T04:17:44.609Z,-2.02
2022-12-18T04:22:39.295Z,-1.95
2022-12-18T04:27:32.614Z,-1.85
2022-12-18T04:32:26.718Z,-1.82
2022-12-18T04:37:20.080Z,-2.01
2022-12-18T04:42:14.828Z,-1.79
2022-12-18T04:47:08.476Z,-1.83
2022-12-18T04:52:01.753Z,-1.87
2022-12-18T04:56:55.141Z,-1.85
2022-12-18T05:01:50.171Z,-1.75
2022-12-18T05:06:43.620Z,-1.77
2022-12-18T05:11:39.812Z,-1.78
2022-12-18T05:16:33.158Z,-1.75
2022-12-18T05:21:28.080Z,-1.63
2022-12-18T05:26:21.626Z,-1.61
2022-12-18T05:31:16.212Z,-1.76
2022-12-18T05:36:12.390Z,-1.99
2022-12-18T05:41:07.745Z,-2.00
2022-12-18T05:46:06.163Z,-1.82
2022-12-18T05:51:08.213Z,-1.67
2022-12-18T05:56:03.906Z,-1.67
2022-12-18T06:00:59.220Z,-1.80
2022-12-18T06:05:52.556Z,-1.69
2022-12-18T06:10:53.787Z,-1.68
2022-12-18T06:15:47.119Z,-1.66
2022-12-18T06:20:42.464Z,-1.63
2022-12-18T06:25:35.736Z,-1.65
2022-12-18T06:30:29.011Z,-1.54
2022-12-18T06:35:22.448Z,-1.55
2022-12-18T06:40:17.762Z,-1.91
2022-12-18T06:45:12.496Z,-1.84
2022-12-18T06:50:06.685Z,-1.77
2022-12-18T06:55:00.274Z,-1.75
2022-12-18T06:59:54.987Z,-1.62
2022-12-18T07:04:50.559Z,-1.56
2022-12-18T07:09:44.024Z,-1.56
2022-12-18T07:14:37.308Z,-1.43
2022-12-18T07:19:32.109Z,-1.51
2022-12-18T07:24:25.706Z,-1.56
2022-12-18T07:29:19.086Z,-1.68
2022-12-18T07:34:13.604Z,-1.55
2022-12-18T07:39:08.578Z,-1.58
2022-12-18T07:44:01.891Z,-1.47
2022-12-18T07:48:55.346Z,-1.47
2022-12-18T07:53:52.427Z,-1.37
2022-12-18T07:58:52.293Z,-1.41
2022-12-18T08:03:45.618Z,-1.50
2022-12-18T08:08:39.231Z,-1.46
2022-12-18T08:13:32.843Z,-1.60
2022-12-18T08:18:27.564Z,-1.38
2022-12-18T08:23:20.994Z,-1.45
2022-12-18T08:28:17.131Z,-1.48
2022-12-18T08:33:10.461Z,-1.45
2022-12-18T08:38:05.273Z,-1.44
2022-12-18T08:43:16.159Z,-1.43
2022-12-18T08:48:09.624Z,-1.35
2022-12-18T08:53:05.105Z,-1.37
2022-12-18T08:57:58.845Z,-1.41
2022-12-18T09:02:52.416Z,-1.16
2022-12-18T09:07:45.893Z,-1.37
2022-12-18T09:12:41.233Z,-1.36
2022-12-18T09:17:34.592Z,-1.31
2022-12-18T09:22:27.902Z,-1.33
2022-12-18T09:27:21.265Z,-1.10
2022-12-18T09:32:22.033Z,-1.15
2022-12-18T09:37:15.736Z,-1.11
2022-12-18T09:42:18.671Z,-1.09
2022-12-18T09:47:20.651Z,-1.01
2022-12-18T09:52:22.482Z,-0.87
2022-12-18T09:57:19.531Z,-0.86
2022-12-18T11:53:30.122Z,-0.86
2022-12-18T11:58:45.058Z,-1.26
2022-12-18T12:04:39.656Z,-1.26
2022-12-18T12:50:01.443Z,-1.10
2022-12-18T12:54:55.691Z,-0.98
2022-12-18T13:00:03.252Z,-1.23
2022-12-18T13:05:07.227Z,-1.19
2022-12-18T13:10:33.454Z,-1.29
2022-12-18T13:21:13.400Z,-1.14
2022-12-18T13:26:35.794Z,-0.96
2022-12-18T13:32:02.305Z,-1.19
2022-12-18T13:37:00.583Z,-1.38
2022-12-18T13:42:43.885Z,-1.19
2022-12-18T13:54:25.392Z,-1.12
2022-12-18T13:59:24.664Z,-0.99
2022-12-18T14:17:51.957Z,-0.99
2022-12-18T14:22:48.654Z,-1.04
2022-12-18T14:27:47.012Z,-1.26
2022-12-18T14:32:40.332Z,-1.22
2022-12-18T14:37:35.061Z,-1.35
2022-12-18T14:42:30.361Z,-1.24
2022-12-18T14:47:23.795Z,-1.23
2022-12-18T14:52:29.051Z,-1.16
2022-12-18T14:57:27.931Z,-1.25
2022-12-18T15:02:25.618Z,-1.27
2022-12-18T15:07:22.524Z,-1.26
2022-12-18T15:12:37.425Z,-1.33
2022-12-18T15:17:30.997Z,-1.19
2022-12-18T15:22:29.634Z,-1.19
2022-12-18T15:27:32.426Z,-1.32
2022-12-18T15:32:25.771Z,-1.40
2022-12-18T15:37:19.383Z,-1.58
2022-12-18T15:42:30.189Z,-1.61
2022-12-18T15:47:25.180Z,-1.49
2022-12-18T15:52:27.088Z,-1.38
2022-12-18T15:57:26.730Z,-1.37
2022-12-18T16:02:23.786Z,-1.46
2022-12-18T16:07:22.850Z,-1.33
2022-12-18T16:12:22.964Z,-1.22
2022-12-18T16:17:17.305Z,-1.21
2022-12-18T16:22:23.523Z,-1.29
2022-12-18T16:27:16.871Z,-1.22
2022-12-18T16:32:16.924Z,-1.15
2022-12-18T16:37:13.138Z,-1.06
2022-12-18T16:42:15.504Z,-0.96
2022-12-18T16:47:09.280Z,-0.94
2022-12-18T16:52:05.037Z,-1.14
2022-12-18T16:56:58.709Z,-1.03
2022-12-18T17:01:53.512Z,-0.97
2022-12-18T17:06:51.887Z,-1.00
2022-12-18T17:11:45.789Z,-0.92
2022-12-18T17:16:40.093Z,-1.08
2022-12-18T17:21:35.128Z,-0.99
2022-12-18T17:26:29.629Z,-0.96
2022-12-18T18:04:16.517Z,-0.84
2022-12-18T18:09:16.582Z,-0.95
2022-12-18T18:14:16.797Z,-0.83
2022-12-18T18:25:43.279Z,-0.82
2022-12-18T18:38:19.222Z,-0.91
2022-12-18T18:43:13.936Z,-0.86
2022-12-18T19:07:42.260Z,-0.66
2022-12-18T19:19:44.262Z,-0.89
2022-12-18T20:17:15.876Z,-0.63
2022-12-18T20:22:09.765Z,-0.68
2022-12-18T20:33:37.098Z,-0.72
2022-12-18T20:38:30.729Z,-0.63
2022-12-18T20:43:28.296Z,-0.78
2022-12-18T20:48:26.476Z,-0.65
2022-12-18T20:53:21.503Z,-0.63
2022-12-18T20:58:14.921Z,-0.56
2022-12-18T21:03:08.356Z,-0.59
2022-12-18T21:08:01.884Z,-0.52
2022-12-18T21:45:50.920Z,-0.68
2022-12-18T21:50:46.135Z,-0.65
2022-12-18T22:02:15.750Z,-0.61
2022-12-18T22:07:10.510Z,-0.56
2022-12-18T22:18:36.391Z,-0.52
2022-12-18T22:23:29.832Z,-0.50
2022-12-18T22:28:37.039Z,-0.62
2022-12-18T22:33:30.462Z,-0.68
2022-12-18T22:38:26.713Z,-0.59
2022-12-18T22:43:20.025Z,-0.59
2022-12-18T22:48:13.336Z,-0.55
2022-12-18T22:53:07.900Z,-0.64
2022-12-18T22:58:02.531Z,-0.59
2022-12-18T23:03:00.420Z,-0.60
2022-12-18T23:07:54.364Z,-0.49
2022-12-18T23:12:47.674Z,-0.61
2022-12-18T23:17:42.564Z,-0.58
2022-12-18T23:22:35.818Z,-0.47
2022-12-18T23:27:29.046Z,-0.66
2022-12-18T23:32:22.333Z,-0.70
2022-12-18T23:37:29.965Z,-0.68
2022-12-18T23:42:30.232Z,-0.61
